createdAt,value
2018-11-12T00:02:00.820Z,24.80
2018-11-12T00:04:31.704Z,24.90
2018-11-12T00:07:02.596Z,23.30
2018-11-12T00:09:33.511Z,22.33
2018-11-12T00:12:04.441Z,26.93
2018-11-12T00:14:35.293Z,27.57
2018-11-12T00:17:06.647Z,27.13
2018-11-12T00:19:37.868Z,30.63
2018-11-12T00:22:08.796Z,29.10
2018-11-12T00:24:39.794Z,26.53
2018-11-12T00:27:10.707Z,27.50
2018-11-12T00:29:41.751Z,28.50
2018-11-12T00:32:13.117Z,29.93
2018-11-12T00:34:44.034Z,30.40
2018-11-12T00:37:15.453Z,30.37
2018-11-12T00:39:47.003Z,30.27
2018-11-12T00:42:17.944Z,26.73
2018-11-12T00:44:49.199Z,26.10
2018-11-12T00:47:20.176Z,25.30
2018-11-12T00:49:51.221Z,23.40
2018-11-12T00:52:22.189Z,24.10
2018-11-12T00:54:53.205Z,24.00
2018-11-12T00:57:24.217Z,22.03
2018-11-12T00:59:55.096Z,23.90
2018-11-12T01:02:26.099Z,25.10
2018-11-12T01:04:57.082Z,28.50
2018-11-12T01:07:28.012Z,26.20
2018-11-12T01:09:58.959Z,24.73
2018-11-12T01:12:30.020Z,23.87
2018-11-12T01:15:01.222Z,25.20
2018-11-12T01:17:32.141Z,24.00
2018-11-12T01:20:03.124Z,23.53
2018-11-12T01:22:34.841Z,23.07
2018-11-12T01:25:05.932Z,21.97
2018-11-12T01:27:36.986Z,21.70
2018-11-12T01:30:14.173Z,22.10
2018-11-12T01:32:45.352Z,19.77
2018-11-12T01:35:17.177Z,23.30
2018-11-12T01:37:48.248Z,22.77
2018-11-12T01:40:19.235Z,25.60
2018-11-12T01:42:50.487Z,25.03
2018-11-12T01:45:21.738Z,25.13
2018-11-12T01:47:52.939Z,22.47
2018-11-12T01:50:23.932Z,22.37
2018-11-12T01:52:54.953Z,22.47
2018-11-12T01:55:25.951Z,24.10
2018-11-12T01:57:56.901Z,24.57
2018-11-12T02:00:27.886Z,23.63
2018-11-12T02:02:58.896Z,26.10
2018-11-12T02:05:30.007Z,21.97
2018-11-12T02:08:01.142Z,21.10
2018-11-12T02:10:32.172Z,19.77
2018-11-12T02:13:03.756Z,19.43
2018-11-12T02:15:35.093Z,23.47
2018-11-12T02:18:06.331Z,24.23
2018-11-12T02:20:37.538Z,23.43
2018-11-12T02:23:09.361Z,20.73
2018-11-12T02:25:40.672Z,20.57
2018-11-12T02:28:11.598Z,18.93
2018-11-12T02:30:49.356Z,21.50
2018-11-12T02:33:20.518Z,19.40
2018-11-12T02:35:51.320Z,18.23
2018-11-12T02:38:22.205Z,20.30
2018-11-12T02:40:53.190Z,21.63
2018-11-12T02:43:24.301Z,18.53
2018-11-12T02:45:55.546Z,19.27
2018-11-12T02:48:26.535Z,17.57
2018-11-12T02:50:57.871Z,21.13
2018-11-12T02:53:28.798Z,23.37
2018-11-12T02:55:59.979Z,25.47
2018-11-12T02:58:31.223Z,26.73
2018-11-12T03:01:02.537Z,22.40
2018-11-12T03:03:33.807Z,22.87
2018-11-12T03:06:06.039Z,25.13
2018-11-12T03:08:37.067Z,24.13
2018-11-12T03:11:08.132Z,25.30
2018-11-12T03:13:39.040Z,24.07
2018-11-12T03:16:10.017Z,31.37
2018-11-12T03:18:48.873Z,29.80
2018-11-12T03:21:20.204Z,31.30
2018-11-12T03:23:51.112Z,30.83
2018-11-12T03:26:22.135Z,32.07
2018-11-12T03:28:53.363Z,31.50
2018-11-12T03:31:24.652Z,33.17
2018-11-12T03:33:55.667Z,29.07
2018-11-12T03:36:26.784Z,27.47
2018-11-12T03:38:57.850Z,22.77
2018-11-12T03:41:29.092Z,25.00
2018-11-12T03:44:00.327Z,21.53
2018-11-12T03:46:31.268Z,23.03
2018-11-12T03:49:02.288Z,22.30
2018-11-12T03:51:33.260Z,23.70
2018-11-12T03:54:04.193Z,20.50
2018-11-12T03:56:35.189Z,23.10
2018-11-12T03:59:06.542Z,22.57
2018-11-12T04:01:47.203Z,22.77
2018-11-12T04:04:18.487Z,21.73
2018-11-12T04:06:49.469Z,22.53
2018-11-12T04:09:20.664Z,20.70
2018-11-12T04:11:52.018Z,21.53
2018-11-12T04:14:23.098Z,28.03
2018-11-12T04:16:54.157Z,24.27
2018-11-12T04:19:25.253Z,22.10
2018-11-12T04:21:56.233Z,28.50
2018-11-12T04:24:27.265Z,27.83
2018-11-12T04:26:58.564Z,18.47
2018-11-12T04:29:29.519Z,24.43
2018-11-12T04:32:00.722Z,22.03
2018-11-12T04:34:31.624Z,18.57
2018-11-12T04:37:03.113Z,18.00
2018-11-12T04:39:34.852Z,17.17
2018-11-12T04:42:06.363Z,19.27
2018-11-12T04:44:37.861Z,16.60
2018-11-12T04:47:08.929Z,23.40
2018-11-12T04:49:40.292Z,24.30
2018-11-12T04:52:11.488Z,21.17
2018-11-12T04:54:42.464Z,21.87
2018-11-12T04:57:13.772Z,24.80
2018-11-12T04:59:44.660Z,25.53
2018-11-12T05:02:16.794Z,25.77
2018-11-12T05:04:48.608Z,26.23
2018-11-12T05:07:19.892Z,22.80
2018-11-12T05:09:51.105Z,22.50
2018-11-12T05:12:21.931Z,25.53
2018-11-12T05:14:52.998Z,25.47
2018-11-12T05:17:24.218Z,27.87
2018-11-12T05:19:55.523Z,28.20
2018-11-12T05:22:26.710Z,41.60
2018-11-12T05:24:58.156Z,45.43
2018-11-12T05:27:29.459Z,40.37
2018-11-12T05:30:01.063Z,43.57
2018-11-12T05:32:32.396Z,43.70
2018-11-12T05:35:03.399Z,45.13
2018-11-12T05:37:34.835Z,43.50
2018-11-12T05:40:07.393Z,44.90
2018-11-12T05:42:38.474Z,44.17
2018-11-12T05:45:09.578Z,43.73
2018-11-12T05:47:40.689Z,45.30
2018-11-12T05:50:20.518Z,39.47
2018-11-12T05:52:52.794Z,41.70
2018-11-12T05:55:25.821Z,41.80
2018-11-12T05:57:57.211Z,43.87
2018-11-12T06:00:29.833Z,39.20
2018-11-12T06:03:01.019Z,39.37
2018-11-12T06:05:32.850Z,39.00
2018-11-12T06:08:04.115Z,37.83
2018-11-12T06:10:35.836Z,36.93
2018-11-12T06:13:07.010Z,34.23
2018-11-12T06:15:37.994Z,34.33
2018-11-12T06:18:08.988Z,35.80
2018-11-12T06:20:39.905Z,32.17
2018-11-12T06:23:11.053Z,34.77
2018-11-12T06:25:42.492Z,32.27
2018-11-12T06:28:13.465Z,30.83
2018-11-12T06:30:44.580Z,29.07
2018-11-12T06:33:16.135Z,27.60
2018-11-12T06:35:47.117Z,29.90
2018-11-12T06:38:18.157Z,29.57
2018-11-12T06:40:49.118Z,29.47
2018-11-12T06:43:20.295Z,30.53
2018-11-12T06:45:51.337Z,28.27
2018-11-12T06:48:22.721Z,27.43
2018-11-12T06:50:53.746Z,27.57
2018-11-12T06:53:24.767Z,27.23
2018-11-12T06:55:55.623Z,26.70
2018-11-12T06:58:26.682Z,26.53
2018-11-12T07:00:57.847Z,28.20
2018-11-12T07:03:28.873Z,28.53
2018-11-12T07:05:59.873Z,28.10
2018-11-12T07:08:31.220Z,31.17
2018-11-12T07:11:02.173Z,30.13
2018-11-12T07:13:33.263Z,26.57
2018-11-12T07:16:04.283Z,29.97
2018-11-12T07:18:35.652Z,27.37
2018-11-12T07:21:06.747Z,29.10
2018-11-12T07:23:37.697Z,28.13
2018-11-12T07:26:08.835Z,27.87
2018-11-12T07:28:39.793Z,27.07
2018-11-12T07:31:10.897Z,29.07
2018-11-12T07:33:41.837Z,30.80
2018-11-12T07:36:12.750Z,29.17
2018-11-12T07:38:43.750Z,28.17
2018-11-12T07:41:14.855Z,27.80
2018-11-12T07:43:45.792Z,28.67
2018-11-12T07:46:17.189Z,28.57
2018-11-12T07:48:48.107Z,26.87
2018-11-12T07:51:19.226Z,27.60
2018-11-12T07:53:50.220Z,28.30
2018-11-12T07:56:21.462Z,29.20
2018-11-12T07:58:52.437Z,28.57
2018-11-12T08:01:23.389Z,29.50
2018-11-12T08:03:54.428Z,30.30
2018-11-12T08:06:25.476Z,30.77
2018-11-12T08:08:56.896Z,32.20
2018-11-12T08:11:28.036Z,31.33
2018-11-12T08:13:59.063Z,30.37
2018-11-12T08:16:30.131Z,29.90
2018-11-12T08:19:01.207Z,31.87
2018-11-12T08:21:32.462Z,30.80
2018-11-12T08:24:03.454Z,30.80
2018-11-12T08:26:34.458Z,30.90
2018-11-12T08:29:05.827Z,31.27
2018-11-12T08:31:36.836Z,32.30
2018-11-12T08:34:07.810Z,31.10
2018-11-12T08:36:39.254Z,29.73
2018-11-12T08:39:10.600Z,30.30
2018-11-12T08:41:41.685Z,29.00
2018-11-12T08:44:12.745Z,30.60
2018-11-12T08:46:43.780Z,28.57
2018-11-12T08:49:15.002Z,29.00
2018-11-12T08:51:45.708Z,29.60
2018-11-12T08:54:16.644Z,28.77
2018-11-12T08:56:47.478Z,31.60
2018-11-12T08:59:18.712Z,29.37
2018-11-12T09:01:49.553Z,29.17
2018-11-12T09:04:20.421Z,29.20
2018-11-12T09:06:51.310Z,27.97
2018-11-12T09:09:23.010Z,28.50
2018-11-12T09:11:53.952Z,28.43
2018-11-12T09:14:24.825Z,29.30
2018-11-12T09:16:55.797Z,28.63
2018-11-12T09:19:26.734Z,27.70
2018-11-12T09:21:57.691Z,26.87
2018-11-12T09:24:28.627Z,27.83
2018-11-12T09:26:59.834Z,26.80
2018-11-12T09:29:31.010Z,26.77
2018-11-12T09:32:01.832Z,25.53
2018-11-12T09:34:32.773Z,27.27
2018-11-12T09:37:03.690Z,27.50
2018-11-12T09:39:34.562Z,26.43
2018-11-12T09:42:05.720Z,24.73
2018-11-12T09:44:36.733Z,22.67
2018-11-12T09:47:07.618Z,21.73
2018-11-12T09:49:38.503Z,22.83
2018-11-12T09:52:09.565Z,22.43
2018-11-12T09:54:40.450Z,22.83
2018-11-12T09:57:11.637Z,22.40
2018-11-12T09:59:42.516Z,23.73
2018-11-12T10:02:14.255Z,24.17
2018-11-12T10:04:45.564Z,23.50
2018-11-12T10:07:16.945Z,25.03
2018-11-12T10:09:48.700Z,23.27
2018-11-12T10:12:19.481Z,26.37
2018-11-12T10:14:51.040Z,23.50
2018-11-12T10:17:22.915Z,25.67
2018-11-12T10:19:51.364Z,25.80
2018-11-12T10:22:22.275Z,27.20
2018-11-12T10:24:53.148Z,25.93
2018-11-12T10:27:24.035Z,25.83
2018-11-12T10:29:54.923Z,26.27
2018-11-12T10:32:25.897Z,25.93
2018-11-12T10:34:56.777Z,25.40
2018-11-12T10:37:27.657Z,24.83
2018-11-12T10:39:58.536Z,24.23
2018-11-12T10:42:29.428Z,27.10
2018-11-12T10:45:00.299Z,26.07
2018-11-12T10:47:31.225Z,29.83
2018-11-12T10:50:02.396Z,28.90
2018-11-12T10:52:33.780Z,28.47
2018-11-12T10:55:05.534Z,28.53
2018-11-12T10:57:35.647Z,29.33
2018-11-12T11:00:13.279Z,27.40
2018-11-12T11:03:01.772Z,24.97
2018-11-12T11:05:33.181Z,27.93
2018-11-12T11:08:04.122Z,32.10
2018-11-12T11:10:35.002Z,30.30
2018-11-12T11:13:06.518Z,30.43
2018-11-12T11:15:38.138Z,31.73
2018-11-12T11:18:09.236Z,30.63
2018-11-12T11:20:40.091Z,27.67
2018-11-12T11:23:11.012Z,27.87
2018-11-12T11:25:42.220Z,28.37
2018-11-12T11:28:13.076Z,28.60
2018-11-12T11:30:43.983Z,27.47
2018-11-12T11:33:15.242Z,27.57
2018-11-12T11:35:46.503Z,28.67
2018-11-12T11:38:17.399Z,27.63
2018-11-12T11:40:48.379Z,26.70
2018-11-12T11:43:19.260Z,28.17
2018-11-12T11:45:50.170Z,27.07
2018-11-12T11:48:21.062Z,27.13
2018-11-12T11:50:52.005Z,26.53
2018-11-12T11:53:22.969Z,24.37
2018-11-12T11:55:53.861Z,25.10
2018-11-12T11:58:24.746Z,27.43
2018-11-12T12:00:55.730Z,26.97
2018-11-12T12:03:27.191Z,28.43
2018-11-12T12:05:58.448Z,26.90
2018-11-12T12:08:29.353Z,27.17
2018-11-12T12:11:00.221Z,26.40
2018-11-12T12:13:31.165Z,26.87
2018-11-12T12:16:02.332Z,26.33
2018-11-12T12:18:33.236Z,24.50
2018-11-12T12:21:04.091Z,24.37
2018-11-12T12:23:35.022Z,20.83
2018-11-12T12:26:05.897Z,22.70
2018-11-12T12:28:36.813Z,22.13
2018-11-12T12:31:07.708Z,21.80
2018-11-12T12:33:38.976Z,21.80
2018-11-12T12:36:09.958Z,20.63
2018-11-12T12:38:40.783Z,21.80
2018-11-12T12:41:11.668Z,20.70
2018-11-12T12:43:42.565Z,19.87
2018-11-12T12:46:13.494Z,21.47
2018-11-12T12:48:44.635Z,21.33
2018-11-12T12:51:16.183Z,19.67
2018-11-12T12:53:47.053Z,21.43
2018-11-12T12:56:18.319Z,23.97
2018-11-12T12:58:49.542Z,22.73
2018-11-12T13:01:20.453Z,23.47
2018-11-12T13:03:51.502Z,22.93
2018-11-12T13:06:22.822Z,23.23
2018-11-12T13:08:53.720Z,23.33
2018-11-12T13:11:24.613Z,22.30
2018-11-12T13:13:55.632Z,22.73
2018-11-12T13:16:26.417Z,22.20
2018-11-12T13:18:57.333Z,23.23
2018-11-12T13:21:28.535Z,22.30
2018-11-12T13:23:59.418Z,21.97
2018-11-12T13:26:30.381Z,22.20
2018-11-12T13:29:01.344Z,19.80
2018-11-12T13:31:32.281Z,19.07
2018-11-12T13:34:03.594Z,19.77
2018-11-12T13:36:34.484Z,19.17
2018-11-12T13:39:08.490Z,20.33
2018-11-12T13:41:39.654Z,19.17
2018-11-12T13:44:10.624Z,18.27
2018-11-12T13:46:55.163Z,18.80
2018-11-12T13:49:26.184Z,18.60
2018-11-12T13:51:57.117Z,18.20
2018-11-12T13:54:28.017Z,17.67
2018-11-12T13:56:58.920Z,18.47
2018-11-12T13:59:30.141Z,17.97
2018-11-12T14:02:01.039Z,17.27
2018-11-12T14:04:32.537Z,18.10
2018-11-12T14:07:03.790Z,17.47
2018-11-12T14:09:35.210Z,17.60
2018-11-12T14:12:06.417Z,18.20
2018-11-12T14:14:37.376Z,17.27
2018-11-12T14:17:08.296Z,17.63
2018-11-12T14:19:39.162Z,16.23
2018-11-12T14:22:10.044Z,18.33
2018-11-12T14:24:40.921Z,18.47
2018-11-12T14:27:11.820Z,18.77
2018-11-12T14:29:42.683Z,17.20
2018-11-12T14:32:13.588Z,19.37
2018-11-12T14:34:44.475Z,18.97
2018-11-12T14:37:15.367Z,19.40
2018-11-12T14:39:46.322Z,18.70
2018-11-12T14:42:18.018Z,18.47
2018-11-12T14:44:48.937Z,18.20
2018-11-12T14:47:20.187Z,18.20
2018-11-12T14:49:51.070Z,17.20
2018-11-12T14:52:22.033Z,16.73
2018-11-12T14:54:52.937Z,17.83
2018-11-12T14:57:23.818Z,17.03
2018-11-12T14:59:54.685Z,16.17
2018-11-12T15:02:25.788Z,17.20
2018-11-12T15:04:56.887Z,17.53
2018-11-12T15:07:27.779Z,18.03
2018-11-12T15:09:58.973Z,18.23
2018-11-12T15:12:29.851Z,18.40
2018-11-12T15:15:00.760Z,17.40
2018-11-12T15:17:32.064Z,17.87
2018-11-12T15:20:02.942Z,17.60
2018-11-12T15:22:33.842Z,17.43
2018-11-12T15:25:04.711Z,20.13
2018-11-12T15:27:35.601Z,20.77
2018-11-12T15:30:08.955Z,20.63
2018-11-12T15:32:40.222Z,21.97
2018-11-12T15:35:12.231Z,24.03
2018-11-12T15:37:43.881Z,22.60
2018-11-12T15:40:15.141Z,21.40
2018-11-12T15:42:46.027Z,22.20
2018-11-12T15:45:19.550Z,20.07
2018-11-12T15:47:50.725Z,20.83
2018-11-12T15:50:36.308Z,19.80
2018-11-12T15:53:07.170Z,22.17
2018-11-12T15:55:38.041Z,21.33
2018-11-12T15:58:09.031Z,19.00
2018-11-12T16:00:39.829Z,25.93
2018-11-12T16:03:10.689Z,27.70
2018-11-12T16:05:41.585Z,27.73
2018-11-12T16:08:12.443Z,26.20
2018-11-12T16:10:43.322Z,25.80
2018-11-12T16:13:14.202Z,24.17
2018-11-12T16:15:45.130Z,19.77
2018-11-12T16:18:16.041Z,24.27
2018-11-12T16:20:46.917Z,23.23
2018-11-12T16:23:18.335Z,22.90
2018-11-12T16:25:49.277Z,22.40
2018-11-12T16:28:20.655Z,23.70
2018-11-12T16:30:51.566Z,23.60
2018-11-12T16:33:22.751Z,24.03
2018-11-12T16:35:53.629Z,24.37
2018-11-12T16:38:24.829Z,25.73
2018-11-12T16:40:55.685Z,27.27
2018-11-12T16:43:26.885Z,27.17
2018-11-12T16:45:57.836Z,28.37
2018-11-12T16:48:28.952Z,28.57
2018-11-12T16:50:59.813Z,29.97
2018-11-12T16:53:30.695Z,29.07
2018-11-12T16:56:01.974Z,29.63
2018-11-12T16:58:32.875Z,31.73
2018-11-12T17:01:03.729Z,26.43
2018-11-12T17:03:34.944Z,28.93
2018-11-12T17:06:05.804Z,30.47
2018-11-12T17:08:36.651Z,29.90
2018-11-12T17:11:07.611Z,31.27
2018-11-12T17:13:38.388Z,31.37
2018-11-12T17:16:09.231Z,31.67
2018-11-12T17:18:40.508Z,32.87
2018-11-12T17:21:11.359Z,32.67
2018-11-12T17:23:42.801Z,33.27
2018-11-12T17:26:13.644Z,31.93
2018-11-12T17:28:44.492Z,34.20
2018-11-12T17:31:15.338Z,37.73
2018-11-12T17:33:46.182Z,35.53
2018-11-12T17:36:17.028Z,39.50
2018-11-12T17:38:47.845Z,36.87
2018-11-12T17:41:18.798Z,39.20
2018-11-12T17:43:49.634Z,41.07
2018-11-12T17:46:21.248Z,36.13
2018-11-12T17:48:52.386Z,46.53
2018-11-12T17:51:23.486Z,42.97
2018-11-12T17:53:54.351Z,40.97
2018-11-12T17:56:25.214Z,38.47
2018-11-12T17:58:56.107Z,37.93
2018-11-12T18:01:27.328Z,39.73
2018-11-12T18:03:58.408Z,43.93
2018-11-12T18:06:29.887Z,38.13
2018-11-12T18:09:00.728Z,38.83
2018-11-12T18:11:31.865Z,35.97
2018-11-12T18:14:02.771Z,43.37
2018-11-12T18:16:34.407Z,31.97
2018-11-12T18:19:05.293Z,41.10
2018-11-12T18:21:36.183Z,41.97
2018-11-12T18:24:07.664Z,36.53
2018-11-12T18:26:38.518Z,36.37
2018-11-12T18:29:09.352Z,34.20
2018-11-12T18:31:40.419Z,37.67
2018-11-12T18:34:11.769Z,33.03
2018-11-12T18:36:42.658Z,37.37
2018-11-12T18:39:14.668Z,37.27
2018-11-12T18:41:45.876Z,39.93
2018-11-12T18:44:16.720Z,38.00
2018-11-12T18:46:47.652Z,37.27
2018-11-12T18:49:18.539Z,32.87
2018-11-12T18:51:49.697Z,35.10
2018-11-12T18:54:20.859Z,34.10
2018-11-12T18:56:51.762Z,39.53
2018-11-12T18:59:22.602Z,30.80
2018-11-12T19:01:53.435Z,31.13
2018-11-12T19:04:24.261Z,37.50
2018-11-12T19:06:55.091Z,28.70
2018-11-12T19:09:26.238Z,31.33
2018-11-12T19:11:57.480Z,31.83
2018-11-12T19:14:28.676Z,31.17
2018-11-12T19:17:00.250Z,28.60
2018-11-12T19:19:31.237Z,38.77
2018-11-12T19:22:02.469Z,32.57
2018-11-12T19:24:33.368Z,38.27
2018-11-12T19:27:04.783Z,30.97
2018-11-12T19:29:35.603Z,32.70
2018-11-12T19:32:06.846Z,28.47
2018-11-12T19:34:38.100Z,35.10
2018-11-12T19:37:09.273Z,32.83
2018-11-12T19:39:40.146Z,26.83
2018-11-12T19:42:11.343Z,29.90
2018-11-12T19:44:42.474Z,31.60
2018-11-12T19:47:13.399Z,32.67
2018-11-12T19:49:44.883Z,27.20
2018-11-12T19:52:15.757Z,33.50
2018-11-12T19:54:47.335Z,30.63
2018-11-12T19:57:18.475Z,26.43
2018-11-12T19:59:49.317Z,28.57
2018-11-12T20:02:20.237Z,33.53
2018-11-12T20:04:51.773Z,32.47
2018-11-12T20:07:22.655Z,30.80
2018-11-12T20:09:53.523Z,31.80
2018-11-12T20:12:24.357Z,37.80
2018-11-12T20:14:55.330Z,29.93
2018-11-12T20:17:26.534Z,33.10
2018-11-12T20:19:58.188Z,30.83
2018-11-12T20:22:29.323Z,28.17
2018-11-12T20:25:00.497Z,25.57
2018-11-12T20:27:31.272Z,28.00
2018-11-12T20:30:02.169Z,28.23
2018-11-12T20:32:33.050Z,35.03
2018-11-12T20:35:03.918Z,27.60
2018-11-12T20:37:34.752Z,31.43
2018-11-12T20:40:06.083Z,30.87
2018-11-12T20:42:37.018Z,32.57
2018-11-12T20:45:10.091Z,34.57
2018-11-12T20:47:41.503Z,26.73
2018-11-12T20:50:13.676Z,33.23
2018-11-12T20:52:44.936Z,38.17
2018-11-12T20:55:17.086Z,31.60
2018-11-12T20:57:48.903Z,31.37
2018-11-12T21:00:27.721Z,34.43
2018-11-12T21:02:58.624Z,32.53
2018-11-12T21:05:31.016Z,32.17
2018-11-12T21:08:02.535Z,37.37
2018-11-12T21:10:33.663Z,33.47
2018-11-12T21:13:04.836Z,30.60
2018-11-12T21:15:35.661Z,33.83
2018-11-12T21:18:06.733Z,31.50
2018-11-12T21:20:37.628Z,30.70
2018-11-12T21:23:08.916Z,35.17
2018-11-12T21:25:39.759Z,32.27
2018-11-12T21:28:10.605Z,34.73
2018-11-12T21:30:41.439Z,34.73
2018-11-12T21:33:12.755Z,32.00
2018-11-12T21:35:43.592Z,34.47
2018-11-12T21:38:15.096Z,36.80
2018-11-12T21:40:45.926Z,33.00
2018-11-12T21:43:16.902Z,33.80
2018-11-12T21:45:47.646Z,34.10
2018-11-12T21:48:18.497Z,33.20
2018-11-12T21:50:49.354Z,40.20
2018-11-12T21:53:20.208Z,31.23
2018-11-12T21:55:51.051Z,38.27
2018-11-12T21:58:21.949Z,37.53
2018-11-12T22:00:53.445Z,32.10
2018-11-12T22:05:47.478Z,38.00
2018-11-12T22:08:18.677Z,29.83
2018-11-12T22:10:49.886Z,36.40
2018-11-12T22:13:20.750Z,30.80
2018-11-12T22:15:51.647Z,31.37
2018-11-12T22:18:22.556Z,36.50
2018-11-12T22:20:53.412Z,34.83
2018-11-12T22:23:24.306Z,31.37
2018-11-12T22:25:55.218Z,31.97
2018-11-12T22:28:26.728Z,28.53
2018-11-12T22:30:57.584Z,32.07
2018-11-12T22:33:28.835Z,34.87
2018-11-12T22:35:59.747Z,30.00
2018-11-12T22:38:30.597Z,34.13
2018-11-12T22:41:01.468Z,30.43
2018-11-12T22:43:32.644Z,35.17
2018-11-12T22:46:03.786Z,31.80
2018-11-12T22:48:34.724Z,32.43
2018-11-12T22:51:05.665Z,32.93
2018-11-12T22:53:36.572Z,33.03
2018-11-12T22:56:07.909Z,28.97
2018-11-12T22:58:38.815Z,32.43
2018-11-12T23:01:09.689Z,32.53
2018-11-12T23:03:40.562Z,32.67
2018-11-12T23:06:12.055Z,33.90
2018-11-12T23:08:43.463Z,38.23
2018-11-12T23:11:14.411Z,32.13
2018-11-12T23:13:45.382Z,29.23
2018-11-12T23:16:16.343Z,32.53
2018-11-12T23:18:47.276Z,30.73
2018-11-12T23:21:18.174Z,29.83
2018-11-12T23:23:49.389Z,35.13
2018-11-12T23:26:20.256Z,27.40
2018-11-12T23:28:51.394Z,31.97
2018-11-12T23:31:22.621Z,30.00
2018-11-12T23:33:53.589Z,30.67
2018-11-12T23:36:24.997Z,28.13
2018-11-12T23:38:56.241Z,28.93
2018-11-12T23:41:27.131Z,29.07
2018-11-12T23:43:58.295Z,31.00
2018-11-12T23:46:29.556Z,31.97
2018-11-12T23:49:01.128Z,31.40
2018-11-12T23:51:32.132Z,30.00
2018-11-12T23:54:03.039Z,30.27
2018-11-12T23:56:33.925Z,31.30
2018-11-12T23:59:05.122Z,32.27
